sensor_id;sensor_type;location;lat;lon;timestamp;pressure;altitude;pressure_sealevel;temperature;humidity
13367;BME280;6752;52.612;13.630;2023-03-13T00:01:21;99974.86;;;6.36;100.00
13367;BME280;6752;52.612;13.630;2023-03-13T00:06:22;99966.14;;;6.27;100.00
13367;BME280;6752;52.612;13.630;2023-03-13T00:11:24;99966.77;;;6.26;100.00
13367;BME280;6752;52.612;13.630;2023-03-13T00:16:27;99975.72;;;6.40;100.00
13367;BME280;6752;52.612;13.630;2023-03-13T00:21:29;99966.14;;;6.41;100.00
13367;BME280;6752;52.612;13.630;2023-03-13T00:26:31;99953.12;;;6.43;100.00
13367;BME280;6752;52.612;13.630;2023-03-13T00:31:34;99947.78;;;6.49;100.00
13367;BME280;6752;52.612;13.630;2023-03-13T00:36:36;99944.79;;;6.42;100.00
13367;BME280;6752;52.612;13.630;2023-03-13T00:41:39;99948.40;;;6.51;100.00
13367;BME280;6752;52.612;13.630;2023-03-13T00:46:41;99927.33;;;6.67;100.00
13367;BME280;6752;52.612;13.630;2023-03-13T00:51:43;99917.66;;;6.65;100.00
13367;BME280;6752;52.612;13.630;2023-03-13T00:56:46;99917.78;;;6.80;100.00
13367;BME280;6752;52.612;13.630;2023-03-13T01:01:50;99905.58;;;6.83;100.00
13367;BME280;6752;52.612;13.630;2023-03-13T01:06:53;99910.25;;;6.92;100.00
13367;BME280;6752;52.612;13.630;2023-03-13T01:11:55;99912.19;;;6.97;100.00
13367;BME280;6752;52.612;13.630;2023-03-13T01:16:58;99909.05;;;7.00;100.00
13367;BME280;6752;52.612;13.630;2023-03-13T01:22:12;99904.22;;;7.05;100.00
13367;BME280;6752;52.612;13.630;2023-03-13T01:27:14;99898.38;;;7.12;100.00
13367;BME280;6752;52.612;13.630;2023-03-13T01:32:16;99906.12;;;7.21;100.00
13367;BME280;6752;52.612;13.630;2023-03-13T01:37:19;99903.67;;;7.09;100.00
13367;BME280;6752;52.612;13.630;2023-03-13T01:42:21;99899.79;;;7.18;100.00
13367;BME280;6752;52.612;13.630;2023-03-13T01:47:23;99891.98;;;7.15;100.00
13367;BME280;6752;52.612;13.630;2023-03-13T01:52:26;99888.67;;;7.13;100.00
13367;BME280;6752;52.612;13.630;2023-03-13T01:57:32;99877.58;;;7.18;100.00
13367;BME280;6752;52.612;13.630;2023-03-13T02:02:34;99865.91;;;7.18;100.00
13367;BME280;6752;52.612;13.630;2023-03-13T02:07:43;99875.92;;;7.17;100.00
13367;BME280;6752;52.612;13.630;2023-03-13T02:12:44;99870.51;;;6.98;100.00
13367;BME280;6752;52.612;13.630;2023-03-13T02:17:47;99865.72;;;6.97;100.00
13367;BME280;6752;52.612;13.630;2023-03-13T02:28:18;99837.30;;;6.93;100.00
13367;BME280;6752;52.612;13.630;2023-03-13T02:33:20;99829.89;;;6.76;100.00
13367;BME280;6752;52.612;13.630;2023-03-13T02:38:23;99834.66;;;6.80;100.00
13367;BME280;6752;52.612;13.630;2023-03-13T02:43:28;99839.65;;;6.80;100.00
13367;BME280;6752;52.612;13.630;2023-03-13T02:48:35;99831.59;;;6.86;100.00
13367;BME280;6752;52.612;13.630;2023-03-13T02:53:33;99818.51;;;6.80;100.00
13367;BME280;6752;52.612;13.630;2023-03-13T02:58:38;99810.04;;;6.88;100.00
13367;BME280;6752;52.612;13.630;2023-03-13T03:03:40;99798.00;;;6.78;100.00
13367;BME280;6752;52.612;13.630;2023-03-13T03:08:43;99793.47;;;6.84;100.00
13367;BME280;6752;52.612;13.630;2023-03-13T03:13:45;99787.29;;;6.93;100.00
13367;BME280;6752;52.612;13.630;2023-03-13T03:18:48;99778.45;;;7.04;100.00
13367;BME280;6752;52.612;13.630;2023-03-13T03:23:53;99777.39;;;7.05;100.00
13367;BME280;6752;52.612;13.630;2023-03-13T03:28:56;99760.42;;;7.04;100.00
13367;BME280;6752;52.612;13.630;2023-03-13T03:34:01;99757.16;;;7.11;100.00
13367;BME280;6752;52.612;13.630;2023-03-13T03:39:04;99757.43;;;7.15;100.00
13367;BME280;6752;52.612;13.630;2023-03-13T03:44:08;99749.65;;;7.22;100.00
13367;BME280;6752;52.612;13.630;2023-03-13T03:49:10;99738.73;;;7.29;100.00
13367;BME280;6752;52.612;13.630;2023-03-13T03:54:13;99737.05;;;7.34;100.00
13367;BME280;6752;52.612;13.630;2023-03-13T03:59:15;99742.02;;;7.46;100.00
13367;BME280;6752;52.612;13.630;2023-03-13T04:04:18;99729.56;;;7.42;100.00
13367;BME280;6752;52.612;13.630;2023-03-13T04:09:20;99720.34;;;7.46;100.00
13367;BME280;6752;52.612;13.630;2023-03-13T04:14:22;99708.39;;;7.51;100.00
13367;BME280;6752;52.612;13.630;2023-03-13T04:19:25;99695.86;;;7.53;100.00
13367;BME280;6752;52.612;13.630;2023-03-13T04:24:27;99689.37;;;7.57;100.00
13367;BME280;6752;52.612;13.630;2023-03-13T04:29:30;99686.66;;;7.57;100.00
13367;BME280;6752;52.612;13.630;2023-03-13T04:34:32;99688.02;;;7.54;100.00
13367;BME280;6752;52.612;13.630;2023-03-13T04:39:34;99671.52;;;7.59;100.00
13367;BME280;6752;52.612;13.630;2023-03-13T04:44:37;99673.11;;;7.54;100.00
13367;BME280;6752;52.612;13.630;2023-03-13T04:49:39;99652.23;;;7.58;100.00
13367;BME280;6752;52.612;13.630;2023-03-13T04:54:42;99650.05;;;7.57;100.00
13367;BME280;6752;52.612;13.630;2023-03-13T04:59:44;99643.55;;;7.49;100.00
13367;BME280;6752;52.612;13.630;2023-03-13T05:04:47;99628.34;;;7.48;100.00
13367;BME280;6752;52.612;13.630;2023-03-13T05:09:49;99620.55;;;7.46;100.00
13367;BME280;6752;52.612;13.630;2023-03-13T05:14:52;99613.45;;;7.54;100.00
13367;BME280;6752;52.612;13.630;2023-03-13T05:19:54;99598.84;;;7.55;100.00
13367;BME280;6752;52.612;13.630;2023-03-13T05:24:56;99585.00;;;7.45;100.00
13367;BME280;6752;52.612;13.630;2023-03-13T05:30:00;99572.00;;;7.50;100.00
13367;BME280;6752;52.612;13.630;2023-03-13T05:35:02;99576.73;;;7.55;100.00
13367;BME280;6752;52.612;13.630;2023-03-13T05:40:05;99559.11;;;7.55;100.00
13367;BME280;6752;52.612;13.630;2023-03-13T05:45:07;99549.59;;;7.73;100.00
13367;BME280;6752;52.612;13.630;2023-03-13T05:50:13;99542.74;;;7.70;100.00
13367;BME280;6752;52.612;13.630;2023-03-13T05:55:16;99542.03;;;7.69;100.00
13367;BME280;6752;52.612;13.630;2023-03-13T06:00:18;99526.34;;;7.65;100.00
13367;BME280;6752;52.612;13.630;2023-03-13T06:05:20;99522.47;;;7.73;100.00
13367;BME280;6752;52.612;13.630;2023-03-13T06:10:26;99508.71;;;7.65;100.00
13367;BME280;6752;52.612;13.630;2023-03-13T06:15:29;99511.80;;;7.75;100.00
13367;BME280;6752;52.612;13.630;2023-03-13T06:20:31;99504.31;;;7.79;100.00
13367;BME280;6752;52.612;13.630;2023-03-13T06:25:34;99500.36;;;7.73;100.00
13367;BME280;6752;52.612;13.630;2023-03-13T06:30:36;99489.63;;;7.78;100.00
13367;BME280;6752;52.612;13.630;2023-03-13T06:35:41;99477.02;;;7.78;100.00
13367;BME280;6752;52.612;13.630;2023-03-13T06:40:43;99471.39;;;7.85;100.00
13367;BME280;6752;52.612;13.630;2023-03-13T06:45:46;99469.63;;;7.85;100.00
13367;BME280;6752;52.612;13.630;2023-03-13T06:50:49;99456.95;;;7.88;100.00
13367;BME280;6752;52.612;13.630;2023-03-13T06:55:50;99434.36;;;7.85;100.00
13367;BME280;6752;52.612;13.630;2023-03-13T07:00:52;99428.48;;;7.79;100.00
13367;BME280;6752;52.612;13.630;2023-03-13T07:05:55;99413.25;;;7.87;100.00
13367;BME280;6752;52.612;13.630;2023-03-13T07:11:00;99397.61;;;7.97;100.00
13367;BME280;6752;52.612;13.630;2023-03-13T07:16:02;99388.52;;;8.03;100.00
13367;BME280;6752;52.612;13.630;2023-03-13T07:21:04;99387.14;;;8.07;100.00
13367;BME280;6752;52.612;13.630;2023-03-13T07:26:09;99383.22;;;8.20;100.00
13367;BME280;6752;52.612;13.630;2023-03-13T07:31:19;99391.08;;;8.31;100.00
13367;BME280;6752;52.612;13.630;2023-03-13T07:36:17;99390.61;;;8.16;100.00
13367;BME280;6752;52.612;13.630;2023-03-13T07:41:20;99379.42;;;8.36;100.00
13367;BME280;6752;52.612;13.630;2023-03-13T07:46:22;99374.50;;;8.30;100.00
13367;BME280;6752;52.612;13.630;2023-03-13T07:51:25;99361.59;;;8.34;100.00
13367;BME280;6752;52.612;13.630;2023-03-13T07:56:27;99349.06;;;8.33;100.00
13367;BME280;6752;52.612;13.630;2023-03-13T08:01:29;99337.08;;;8.43;100.00
13367;BME280;6752;52.612;13.630;2023-03-13T08:06:33;99327.21;;;8.46;100.00
13367;BME280;6752;52.612;13.630;2023-03-13T08:11:35;99321.16;;;8.61;100.00
13367;BME280;6752;52.612;13.630;2023-03-13T08:16:37;99317.16;;;8.58;100.00
13367;BME280;6752;52.612;13.630;2023-03-13T08:21:57;99322.10;;;8.61;100.00
13367;BME280;6752;52.612;13.630;2023-03-13T08:27:00;99306.83;;;8.57;100.00
13367;BME280;6752;52.612;13.630;2023-03-13T08:32:02;99289.30;;;8.51;100.00
13367;BME280;6752;52.612;13.630;2023-03-13T08:37:04;99304.64;;;8.51;100.00
13367;BME280;6752;52.612;13.630;2023-03-13T08:42:07;99309.88;;;8.75;100.00
13367;BME280;6752;52.612;13.630;2023-03-13T08:47:09;99296.44;;;8.69;100.00
13367;BME280;6752;52.612;13.630;2023-03-13T08:52:16;99307.19;;;8.69;100.00
13367;BME280;6752;52.612;13.630;2023-03-13T08:57:18;99300.20;;;8.73;100.00
13367;BME280;6752;52.612;13.630;2023-03-13T09:02:21;99299.19;;;8.91;100.00
13367;BME280;6752;52.612;13.630;2023-03-13T09:07:24;99290.29;;;9.02;100.00
13367;BME280;6752;52.612;13.630;2023-03-13T09:12:26;99263.28;;;9.12;100.00
13367;BME280;6752;52.612;13.630;2023-03-13T09:17:29;99259.07;;;9.21;100.00
13367;BME280;6752;52.612;13.630;2023-03-13T09:22:31;99252.27;;;9.27;100.00
13367;BME280;6752;52.612;13.630;2023-03-13T09:27:34;99236.17;;;9.42;100.00
13367;BME280;6752;52.612;13.630;2023-03-13T09:32:36;99233.43;;;9.48;100.00
13367;BME280;6752;52.612;13.630;2023-03-13T09:37:46;99232.38;;;9.43;100.00
13367;BME280;6752;52.612;13.630;2023-03-13T09:42:59;99225.28;;;9.59;100.00
13367;BME280;6752;52.612;13.630;2023-03-13T09:48:01;99232.81;;;9.63;100.00
13367;BME280;6752;52.612;13.630;2023-03-13T09:53:14;99219.12;;;9.66;100.00
13367;BME280;6752;52.612;13.630;2023-03-13T09:58:21;99218.94;;;9.70;100.00
13367;BME280;6752;52.612;13.630;2023-03-13T10:03:25;99211.08;;;9.54;100.00
13367;BME280;6752;52.612;13.630;2023-03-13T10:08:26;99214.12;;;9.58;100.00
13367;BME280;6752;52.612;13.630;2023-03-13T10:13:36;99218.39;;;9.62;100.00
13367;BME280;6752;52.612;13.630;2023-03-13T10:18:36;99225.27;;;9.76;100.00
13367;BME280;6752;52.612;13.630;2023-03-13T10:23:40;99210.80;;;9.83;100.00
13367;BME280;6752;52.612;13.630;2023-03-13T10:28:40;99202.80;;;9.94;100.00
13367;BME280;6752;52.612;13.630;2023-03-13T10:33:43;99180.25;;;10.20;100.00
13367;BME280;6752;52.612;13.630;2023-03-13T10:38:46;99185.49;;;10.49;100.00
13367;BME280;6752;52.612;13.630;2023-03-13T10:43:51;99174.15;;;10.59;100.00
13367;BME280;6752;52.612;13.630;2023-03-13T10:48:53;99145.58;;;10.64;100.00
13367;BME280;6752;52.612;13.630;2023-03-13T10:53:55;99137.67;;;10.76;100.00
13367;BME280;6752;52.612;13.630;2023-03-13T10:58:57;99120.01;;;11.18;100.00
13367;BME280;6752;52.612;13.630;2023-03-13T11:04:00;99129.17;;;11.23;100.00
13367;BME280;6752;52.612;13.630;2023-03-13T11:09:15;99122.41;;;11.33;100.00
13367;BME280;6752;52.612;13.630;2023-03-13T11:14:21;99110.03;;;11.84;100.00
13367;BME280;6752;52.612;13.630;2023-03-13T11:19:47;99083.53;;;12.31;100.00
13367;BME280;6752;52.612;13.630;2023-03-13T11:24:56;99089.30;;;12.68;100.00
13367;BME280;6752;52.612;13.630;2023-03-13T11:35:52;99073.02;;;12.92;100.00
13367;BME280;6752;52.612;13.630;2023-03-13T11:46:18;99059.48;;;12.76;100.00
13367;BME280;6752;52.612;13.630;2023-03-13T11:51:28;99060.27;;;13.12;100.00
13367;BME280;6752;52.612;13.630;2023-03-13T11:56:52;99053.73;;;13.06;100.00
13367;BME280;6752;52.612;13.630;2023-03-13T12:02:05;99054.40;;;13.27;100.00
13367;BME280;6752;52.612;13.630;2023-03-13T12:07:29;99049.47;;;13.29;100.00
13367;BME280;6752;52.612;13.630;2023-03-13T12:12:48;99044.61;;;13.51;100.00
13367;BME280;6752;52.612;13.630;2023-03-13T12:18:00;99049.20;;;13.63;100.00
13367;BME280;6752;52.612;13.630;2023-03-13T12:23:01;99030.28;;;14.16;100.00
13367;BME280;6752;52.612;13.630;2023-03-13T12:28:14;99026.41;;;14.03;100.00
13367;BME280;6752;52.612;13.630;2023-03-13T12:33:13;99021.12;;;14.14;100.00
13367;BME280;6752;52.612;13.630;2023-03-13T12:38:43;99028.83;;;14.09;100.00
13367;BME280;6752;52.612;13.630;2023-03-13T12:43:43;99017.50;;;14.04;100.00
13367;BME280;6752;52.612;13.630;2023-03-13T12:48:56;99017.18;;;14.52;100.00
13367;BME280;6752;52.612;13.630;2023-03-13T12:54:10;99015.73;;;14.45;100.00
13367;BME280;6752;52.612;13.630;2023-03-13T12:59:20;98999.23;;;15.54;100.00
13367;BME280;6752;52.612;13.630;2023-03-13T13:04:29;98995.75;;;16.00;100.00
13367;BME280;6752;52.612;13.630;2023-03-13T13:19:49;98990.69;;;16.26;100.00
13367;BME280;6752;52.612;13.630;2023-03-13T13:24:58;98986.52;;;16.12;100.00
13367;BME280;6752;52.612;13.630;2023-03-13T13:30:01;98976.25;;;16.43;100.00
13367;BME280;6752;52.612;13.630;2023-03-13T13:35:03;98970.91;;;16.66;100.00
13367;BME280;6752;52.612;13.630;2023-03-13T13:40:25;98971.34;;;16.82;100.00
13367;BME280;6752;52.612;13.630;2023-03-13T13:50:27;98953.77;;;16.81;100.00
13367;BME280;6752;52.612;13.630;2023-03-13T14:00:41;98963.05;;;16.92;100.00
13367;BME280;6752;52.612;13.630;2023-03-13T14:05:43;98965.76;;;16.78;100.00
13367;BME280;6752;52.612;13.630;2023-03-13T14:11:02;98965.55;;;16.68;100.00
13367;BME280;6752;52.612;13.630;2023-03-13T14:15:56;98964.22;;;16.39;100.00
13367;BME280;6752;52.612;13.630;2023-03-13T14:20:59;98963.42;;;17.08;100.00
13367;BME280;6752;52.612;13.630;2023-03-13T14:26:20;98961.26;;;16.92;100.00
13367;BME280;6752;52.612;13.630;2023-03-13T14:36:27;98960.91;;;16.40;100.00
13367;BME280;6752;52.612;13.630;2023-03-13T14:41:35;98947.44;;;16.48;100.00
13367;BME280;6752;52.612;13.630;2023-03-13T14:46:33;98943.91;;;16.45;100.00
13367;BME280;6752;52.612;13.630;2023-03-13T14:51:36;98935.80;;;16.21;100.00
13367;BME280;6752;52.612;13.630;2023-03-13T14:56:38;98936.77;;;16.21;100.00
13367;BME280;6752;52.612;13.630;2023-03-13T15:01:41;98934.70;;;16.45;100.00
13367;BME280;6752;52.612;13.630;2023-03-13T15:06:43;98936.99;;;16.47;100.00
13367;BME280;6752;52.612;13.630;2023-03-13T15:11:52;98924.03;;;16.18;100.00
13367;BME280;6752;52.612;13.630;2023-03-13T15:16:54;98909.00;;;16.13;100.00
13367;BME280;6752;52.612;13.630;2023-03-13T15:21:59;98917.55;;;16.11;100.00
13367;BME280;6752;52.612;13.630;2023-03-13T15:27:01;98903.88;;;16.22;100.00
13367;BME280;6752;52.612;13.630;2023-03-13T15:32:03;98892.83;;;16.09;100.00
13367;BME280;6752;52.612;13.630;2023-03-13T15:37:08;98894.66;;;16.16;100.00
13367;BME280;6752;52.612;13.630;2023-03-13T15:42:08;98887.64;;;16.17;100.00
13367;BME280;6752;52.612;13.630;2023-03-13T15:47:13;98882.23;;;16.02;100.00
13367;BME280;6752;52.612;13.630;2023-03-13T15:52:19;98885.56;;;15.92;100.00
13367;BME280;6752;52.612;13.630;2023-03-13T15:57:23;98871.38;;;15.85;100.00
13367;BME280;6752;52.612;13.630;2023-03-13T16:02:28;98865.02;;;15.71;100.00
13367;BME280;6752;52.612;13.630;2023-03-13T16:07:27;98856.46;;;15.65;100.00
13367;BME280;6752;52.612;13.630;2023-03-13T16:12:29;98853.48;;;15.71;100.00
13367;BME280;6752;52.612;13.630;2023-03-13T16:17:33;98854.02;;;15.64;100.00
13367;BME280;6752;52.612;13.630;2023-03-13T16:22:35;98843.37;;;15.48;100.00
13367;BME280;6752;52.612;13.630;2023-03-13T16:27:38;98839.88;;;15.33;100.00
13367;BME280;6752;52.612;13.630;2023-03-13T16:32:40;98828.59;;;15.34;100.00
13367;BME280;6752;52.612;13.630;2023-03-13T16:37:43;98826.78;;;15.27;100.00
13367;BME280;6752;52.612;13.630;2023-03-13T16:42:45;98814.68;;;15.10;100.00
13367;BME280;6752;52.612;13.630;2023-03-13T16:47:47;98803.38;;;15.04;100.00
13367;BME280;6752;52.612;13.630;2023-03-13T16:52:50;98802.59;;;15.01;100.00
13367;BME280;6752;52.612;13.630;2023-03-13T16:57:53;98792.44;;;15.02;100.00
13367;BME280;6752;52.612;13.630;2023-03-13T17:02:58;98793.59;;;15.08;100.00
13367;BME280;6752;52.612;13.630;2023-03-13T17:08:01;98781.15;;;15.15;100.00
13367;BME280;6752;52.612;13.630;2023-03-13T17:13:03;98775.13;;;15.04;100.00
13367;BME280;6752;52.612;13.630;2023-03-13T17:18:06;98768.28;;;14.94;100.00
13367;BME280;6752;52.612;13.630;2023-03-13T17:23:08;98777.77;;;14.93;100.00
13367;BME280;6752;52.612;13.630;2023-03-13T17:28:13;98775.43;;;14.93;100.00
13367;BME280;6752;52.612;13.630;2023-03-13T17:33:17;98781.84;;;14.74;100.00
13367;BME280;6752;52.612;13.630;2023-03-13T17:38:20;98779.48;;;14.77;100.00
13367;BME280;6752;52.612;13.630;2023-03-13T17:43:24;98764.73;;;14.61;100.00
13367;BME280;6752;52.612;13.630;2023-03-13T17:48:26;98781.50;;;14.47;100.00
13367;BME280;6752;52.612;13.630;2023-03-13T17:53:29;98769.39;;;14.51;100.00
13367;BME280;6752;52.612;13.630;2023-03-13T17:58:31;98765.20;;;14.46;100.00
13367;BME280;6752;52.612;13.630;2023-03-13T18:03:34;98751.65;;;14.40;100.00
13367;BME280;6752;52.612;13.630;2023-03-13T18:08:37;98762.24;;;14.52;100.00
13367;BME280;6752;52.612;13.630;2023-03-13T18:13:40;98744.13;;;14.44;100.00
13367;BME280;6752;52.612;13.630;2023-03-13T18:18:42;98747.83;;;14.39;100.00
13367;BME280;6752;52.612;13.630;2023-03-13T18:23:46;98760.11;;;14.32;100.00
13367;BME280;6752;52.612;13.630;2023-03-13T18:28:48;98747.03;;;14.26;100.00
13367;BME280;6752;52.612;13.630;2023-03-13T18:33:54;98734.57;;;14.37;100.00
13367;BME280;6752;52.612;13.630;2023-03-13T18:38:55;98727.57;;;14.37;100.00
13367;BME280;6752;52.612;13.630;2023-03-13T18:43:57;98725.61;;;14.43;100.00
13367;BME280;6752;52.612;13.630;2023-03-13T18:48:59;98732.94;;;14.36;100.00
13367;BME280;6752;52.612;13.630;2023-03-13T18:54:02;98718.31;;;14.33;100.00
13367;BME280;6752;52.612;13.630;2023-03-13T18:59:05;98717.53;;;14.30;100.00
13367;BME280;6752;52.612;13.630;2023-03-13T19:04:07;98720.30;;;14.28;100.00
13367;BME280;6752;52.612;13.630;2023-03-13T19:09:13;98721.70;;;14.25;100.00
13367;BME280;6752;52.612;13.630;2023-03-13T19:14:16;98707.64;;;14.32;100.00
13367;BME280;6752;52.612;13.630;2023-03-13T19:19:19;98706.31;;;14.29;100.00
13367;BME280;6752;52.612;13.630;2023-03-13T19:24:20;98703.94;;;14.32;100.00
13367;BME280;6752;52.612;13.630;2023-03-13T19:29:23;98685.90;;;14.17;100.00
13367;BME280;6752;52.612;13.630;2023-03-13T19:34:25;98678.67;;;14.14;100.00
13367;BME280;6752;52.612;13.630;2023-03-13T19:39:27;98692.73;;;14.07;100.00
13367;BME280;6752;52.612;13.630;2023-03-13T19:44:30;98688.75;;;13.97;100.00
13367;BME280;6752;52.612;13.630;2023-03-13T19:49:32;98688.43;;;14.01;100.00
13367;BME280;6752;52.612;13.630;2023-03-13T19:54:34;98671.10;;;13.96;100.00
13367;BME280;6752;52.612;13.630;2023-03-13T19:59:37;98689.69;;;13.99;100.00
13367;BME280;6752;52.612;13.630;2023-03-13T20:04:39;98696.97;;;13.97;100.00
13367;BME280;6752;52.612;13.630;2023-03-13T20:09:42;98710.08;;;14.00;100.00
13367;BME280;6752;52.612;13.630;2023-03-13T20:14:44;98702.13;;;13.87;100.00
13367;BME280;6752;52.612;13.630;2023-03-13T20:19:50;98691.63;;;13.72;100.00
13367;BME280;6752;52.612;13.630;2023-03-13T20:24:52;98683.44;;;13.82;100.00
13367;BME280;6752;52.612;13.630;2023-03-13T20:29:54;98678.75;;;13.73;100.00
13367;BME280;6752;52.612;13.630;2023-03-13T20:34:57;98670.71;;;13.67;100.00
13367;BME280;6752;52.612;13.630;2023-03-13T20:39:59;98667.86;;;13.53;100.00
13367;BME280;6752;52.612;13.630;2023-03-13T20:45:07;98661.02;;;13.53;100.00
13367;BME280;6752;52.612;13.630;2023-03-13T20:50:06;98648.73;;;13.51;100.00
13367;BME280;6752;52.612;13.630;2023-03-13T20:55:08;98651.90;;;13.46;100.00
13367;BME280;6752;52.612;13.630;2023-03-13T21:00:11;98650.00;;;13.44;100.00
13367;BME280;6752;52.612;13.630;2023-03-13T21:05:20;98664.73;;;13.50;100.00
13367;BME280;6752;52.612;13.630;2023-03-13T21:10:22;98647.68;;;13.44;100.00
13367;BME280;6752;52.612;13.630;2023-03-13T21:15:24;98639.44;;;13.47;100.00
13367;BME280;6752;52.612;13.630;2023-03-13T21:20:26;98640.89;;;13.39;100.00
13367;BME280;6752;52.612;13.630;2023-03-13T21:25:35;98643.98;;;13.44;100.00
13367;BME280;6752;52.612;13.630;2023-03-13T21:30:37;98635.89;;;13.46;100.00
13367;BME280;6752;52.612;13.630;2023-03-13T21:35:40;98647.01;;;13.43;100.00
13367;BME280;6752;52.612;13.630;2023-03-13T21:40:42;98663.98;;;13.57;100.00
13367;BME280;6752;52.612;13.630;2023-03-13T21:45:44;98672.31;;;13.59;100.00
13367;BME280;6752;52.612;13.630;2023-03-13T21:50:52;98661.59;;;13.62;100.00
13367;BME280;6752;52.612;13.630;2023-03-13T21:55:55;98644.69;;;13.58;100.00
13367;BME280;6752;52.612;13.630;2023-03-13T22:00:57;98623.60;;;13.58;100.00
13367;BME280;6752;52.612;13.630;2023-03-13T22:06:00;98627.27;;;13.60;100.00
13367;BME280;6752;52.612;13.630;2023-03-13T22:11:02;98627.36;;;13.53;100.00
13367;BME280;6752;52.612;13.630;2023-03-13T22:16:04;98613.77;;;13.57;100.00
13367;BME280;6752;52.612;13.630;2023-03-13T22:21:07;98635.07;;;13.46;100.00
13367;BME280;6752;52.612;13.630;2023-03-13T22:26:11;98633.03;;;13.44;100.00
13367;BME280;6752;52.612;13.630;2023-03-13T22:31:14;98632.58;;;13.52;100.00
13367;BME280;6752;52.612;13.630;2023-03-13T22:36:16;98623.31;;;13.45;100.00
13367;BME280;6752;52.612;13.630;2023-03-13T22:41:19;98619.64;;;13.43;100.00
13367;BME280;6752;52.612;13.630;2023-03-13T22:46:21;98617.72;;;13.43;100.00
13367;BME280;6752;52.612;13.630;2023-03-13T22:51:24;98614.84;;;13.44;100.00
13367;BME280;6752;52.612;13.630;2023-03-13T22:56:27;98596.83;;;13.41;100.00
13367;BME280;6752;52.612;13.630;2023-03-13T23:01:29;98614.92;;;13.36;100.00
13367;BME280;6752;52.612;13.630;2023-03-13T23:06:32;98589.17;;;13.40;100.00
13367;BME280;6752;52.612;13.630;2023-03-13T23:11:34;98610.53;;;13.26;100.00
13367;BME280;6752;52.612;13.630;2023-03-13T23:16:37;98603.13;;;13.24;100.00
13367;BME280;6752;52.612;13.630;2023-03-13T23:21:39;98607.30;;;13.33;100.00
13367;BME280;6752;52.612;13.630;2023-03-13T23:26:41;98610.03;;;13.19;100.00
13367;BME280;6752;52.612;13.630;2023-03-13T23:31:44;98593.87;;;13.05;100.00
13367;BME280;6752;52.612;13.630;2023-03-13T23:36:47;98587.53;;;12.93;100.00
13367;BME280;6752;52.612;13.630;2023-03-13T23:41:48;98575.93;;;12.92;100.00
13367;BME280;6752;52.612;13.630;2023-03-13T23:46:51;98591.36;;;12.80;100.00
13367;BME280;6752;52.612;13.630;2023-03-13T23:51:53;98579.14;;;12.67;100.00
13367;BME280;6752;52.612;13.630;2023-03-13T23:56:56;98570.37;;;12.70;100.00
